createdAt,value
2023-03-03T00:01:38.337Z,61.33
2023-03-03T00:04:04.817Z,61.37
2023-03-03T00:06:31.329Z,61.42
2023-03-03T00:08:58.105Z,61.30
2023-03-03T00:11:24.842Z,61.26
2023-03-03T00:13:53.630Z,61.34
2023-03-03T00:16:32.592Z,61.63
2023-03-03T00:18:59.959Z,61.14
2023-03-03T00:21:32.655Z,61.14
2023-03-03T00:24:05.292Z,61.18
2023-03-03T00:26:37.668Z,61.12
2023-03-03T00:29:46.666Z,61.19
2023-03-03T00:32:15.937Z,61.22
2023-03-03T00:34:43.862Z,61.26
2023-03-03T00:37:25.880Z,61.69
2023-03-03T00:39:52.405Z,60.82
2023-03-03T00:42:19.808Z,61.26
2023-03-03T00:44:46.981Z,61.46
2023-03-03T00:47:52.158Z,61.42
2023-03-03T00:50:33.558Z,61.40
2023-03-03T00:53:05.927Z,61.37
2023-03-03T00:55:33.780Z,61.02
2023-03-03T00:58:00.443Z,60.74
2023-03-03T01:00:26.972Z,61.18
2023-03-03T01:02:53.634Z,61.22
2023-03-03T01:05:20.642Z,61.34
2023-03-03T01:07:47.306Z,61.50
2023-03-03T01:10:14.220Z,61.32
2023-03-03T01:12:40.825Z,61.56
2023-03-03T01:15:09.634Z,61.36
2023-03-03T01:17:36.589Z,61.36
2023-03-03T01:20:04.509Z,61.48
2023-03-03T01:22:31.037Z,61.51
2023-03-03T01:24:59.236Z,61.49
2023-03-03T01:27:28.590Z,61.37
2023-03-03T01:29:56.527Z,61.28
2023-03-03T01:32:24.856Z,61.31
2023-03-03T01:34:51.476Z,61.57
2023-03-03T01:37:18.053Z,61.36
2023-03-03T01:39:48.672Z,61.40
2023-03-03T01:42:15.789Z,61.16
2023-03-03T01:44:42.408Z,61.36
2023-03-03T01:47:22.486Z,62.03
2023-03-03T01:49:59.924Z,61.67
2023-03-03T01:52:39.602Z,61.83
2023-03-03T01:55:15.402Z,61.97
2023-03-03T01:57:47.545Z,61.79
2023-03-03T02:00:14.697Z,61.87
2023-03-03T02:02:42.566Z,61.85
2023-03-03T02:05:10.300Z,61.55
2023-03-03T02:07:37.858Z,61.70
2023-03-03T02:10:06.688Z,62.10
2023-03-03T02:12:48.330Z,62.21
2023-03-03T02:15:27.532Z,62.52
2023-03-03T02:17:57.009Z,61.76
2023-03-03T02:20:33.119Z,62.53
2023-03-03T02:23:18.062Z,62.43
2023-03-03T02:25:58.753Z,62.15
2023-03-03T02:28:32.366Z,62.07
2023-03-03T02:30:59.894Z,61.96
2023-03-03T02:33:27.001Z,61.78
2023-03-03T02:35:53.896Z,61.79
2023-03-03T02:38:32.018Z,62.75
2023-03-03T02:41:34.064Z,62.28
2023-03-03T02:44:07.337Z,61.99
2023-03-03T02:46:37.264Z,62.25
2023-03-03T02:49:05.669Z,62.13
2023-03-03T02:51:32.695Z,62.05
2023-03-03T02:53:59.266Z,62.42
2023-03-03T02:56:25.733Z,62.33
2023-03-03T02:58:52.143Z,62.64
2023-03-03T03:01:18.902Z,62.31
2023-03-03T03:03:45.610Z,62.51
2023-03-03T03:06:12.244Z,62.43
2023-03-03T03:08:38.698Z,62.50
2023-03-03T03:11:08.379Z,62.16
2023-03-03T03:13:35.090Z,62.23
2023-03-03T03:16:01.559Z,62.71
2023-03-03T03:18:28.337Z,62.97
2023-03-03T03:20:54.716Z,62.71
2023-03-03T03:23:24.278Z,62.79
2023-03-03T03:25:50.697Z,62.67
2023-03-03T03:28:18.718Z,62.97
2023-03-03T03:30:45.643Z,62.87
2023-03-03T03:33:12.315Z,62.82
2023-03-03T03:35:40.387Z,63.00
2023-03-03T03:38:06.784Z,62.68
2023-03-03T03:40:33.187Z,62.97
2023-03-03T03:42:59.558Z,62.75
2023-03-03T03:45:25.937Z,62.67
2023-03-03T03:47:52.316Z,62.47
2023-03-03T03:50:19.034Z,62.67
2023-03-03T03:52:45.513Z,62.58
2023-03-03T03:55:11.914Z,62.35
2023-03-03T03:57:38.305Z,62.80
2023-03-03T04:00:06.038Z,62.61
2023-03-03T04:02:32.461Z,62.68
2023-03-03T04:04:59.011Z,63.07
2023-03-03T04:07:25.441Z,62.47
2023-03-03T04:09:52.054Z,62.83
2023-03-03T04:12:18.408Z,62.96
2023-03-03T04:14:44.786Z,62.77
2023-03-03T04:17:18.833Z,63.27
2023-03-03T04:19:45.587Z,62.82
2023-03-03T04:22:13.506Z,62.73
2023-03-03T04:24:42.746Z,63.28
2023-03-03T04:27:09.409Z,63.02
2023-03-03T04:29:36.164Z,63.04
2023-03-03T04:32:02.730Z,62.94
2023-03-03T04:34:29.086Z,62.83
2023-03-03T04:36:55.581Z,62.86
2023-03-03T04:39:21.912Z,62.82
2023-03-03T04:41:48.292Z,62.67
2023-03-03T04:44:14.591Z,62.58
2023-03-03T04:46:40.954Z,62.89
2023-03-03T04:49:09.795Z,62.74
2023-03-03T04:51:37.934Z,62.96
2023-03-03T04:54:04.481Z,62.83
2023-03-03T04:56:31.634Z,62.94
2023-03-03T04:58:58.359Z,62.74
2023-03-03T05:01:24.774Z,63.12
2023-03-03T05:03:51.213Z,62.90
2023-03-03T05:06:18.809Z,62.94
2023-03-03T05:08:46.027Z,63.00
2023-03-03T05:11:13.910Z,62.88
2023-03-03T05:13:40.784Z,62.81
2023-03-03T05:16:07.719Z,62.87
2023-03-03T05:18:34.211Z,62.95
2023-03-03T05:21:01.588Z,63.01
2023-03-03T05:23:27.922Z,62.98
2023-03-03T05:25:54.343Z,62.99
2023-03-03T05:28:20.991Z,63.08
2023-03-03T05:30:47.391Z,62.98
2023-03-03T05:33:16.539Z,63.05
2023-03-03T05:35:43.570Z,62.54
2023-03-03T05:38:10.464Z,62.56
2023-03-03T05:40:37.535Z,62.50
2023-03-03T05:43:04.167Z,62.64
2023-03-03T05:45:30.621Z,62.30
2023-03-03T05:47:57.011Z,62.42
2023-03-03T05:50:23.923Z,62.62
2023-03-03T05:52:52.058Z,62.90
2023-03-03T05:55:19.320Z,62.71
2023-03-03T05:57:46.060Z,62.80
2023-03-03T06:00:13.559Z,62.76
2023-03-03T06:02:40.835Z,62.97
2023-03-03T06:05:07.680Z,62.84
2023-03-03T06:07:34.481Z,62.95
2023-03-03T06:10:01.177Z,62.93
2023-03-03T06:12:27.573Z,62.70
2023-03-03T06:14:53.968Z,62.86
2023-03-03T06:17:20.363Z,63.12
2023-03-03T06:19:47.686Z,63.01
2023-03-03T06:22:14.472Z,62.71
2023-03-03T06:24:40.970Z,62.60
2023-03-03T06:27:07.675Z,62.61
2023-03-03T06:29:34.022Z,63.02
2023-03-03T06:32:00.483Z,62.86
2023-03-03T06:34:27.116Z,63.06
2023-03-03T06:36:53.541Z,63.28
2023-03-03T06:39:19.962Z,63.21
2023-03-03T06:41:46.322Z,62.92
2023-03-03T06:44:13.101Z,63.07
2023-03-03T06:46:39.508Z,63.27
2023-03-03T06:49:05.923Z,63.34
2023-03-03T06:51:39.704Z,63.19
2023-03-03T06:54:30.852Z,63.72
2023-03-03T06:57:00.777Z,62.97
2023-03-03T06:59:27.996Z,63.31
2023-03-03T07:01:54.536Z,62.98
2023-03-03T07:04:31.657Z,63.37
2023-03-03T07:07:00.184Z,63.12
2023-03-03T07:09:29.063Z,63.09
2023-03-03T07:12:06.566Z,63.32
2023-03-03T07:14:34.945Z,63.42
2023-03-03T07:17:05.002Z,63.42
2023-03-03T07:19:34.627Z,63.20
2023-03-03T07:22:15.988Z,63.48
2023-03-03T07:24:44.582Z,63.21
2023-03-03T07:27:25.605Z,63.33
2023-03-03T07:29:54.375Z,63.18
2023-03-03T07:32:50.275Z,63.17
2023-03-03T07:35:40.542Z,63.33
2023-03-03T07:38:38.934Z,63.11
2023-03-03T07:41:17.361Z,63.51
2023-03-03T07:43:54.797Z,63.42
2023-03-03T07:46:35.319Z,63.63
2023-03-03T07:49:05.990Z,63.25
2023-03-03T07:51:42.000Z,63.67
2023-03-03T07:54:15.090Z,63.70
2023-03-03T07:56:42.059Z,63.45
2023-03-03T07:59:27.303Z,63.43
2023-03-03T08:01:58.077Z,63.46
2023-03-03T08:04:50.640Z,63.45
2023-03-03T08:07:19.049Z,63.41
2023-03-03T08:09:56.276Z,63.74
2023-03-03T08:12:31.077Z,63.58
2023-03-03T08:15:20.866Z,63.83
2023-03-03T08:17:48.236Z,63.96
2023-03-03T08:20:36.402Z,64.00
2023-03-03T08:23:02.752Z,63.94
2023-03-03T08:25:29.443Z,63.83
2023-03-03T08:27:55.787Z,63.92
2023-03-03T08:30:22.276Z,63.87
2023-03-03T08:32:48.717Z,64.13
2023-03-03T08:35:15.256Z,63.74
2023-03-03T08:37:41.597Z,64.09
2023-03-03T08:40:08.686Z,63.79
2023-03-03T08:42:35.018Z,63.65
2023-03-03T08:45:01.489Z,63.59
2023-03-03T08:47:27.885Z,63.45
2023-03-03T08:49:54.484Z,63.36
2023-03-03T08:52:20.978Z,63.39
2023-03-03T08:54:47.485Z,63.03
2023-03-03T08:57:14.067Z,63.27
2023-03-03T08:59:40.833Z,63.31
2023-03-03T09:02:07.536Z,63.63
2023-03-03T09:04:34.789Z,63.44
2023-03-03T09:07:01.178Z,63.32
2023-03-03T09:09:27.690Z,62.90
2023-03-03T09:11:58.633Z,62.92
2023-03-03T09:14:28.961Z,62.88
2023-03-03T09:16:57.216Z,63.21
2023-03-03T09:19:29.465Z,62.83
2023-03-03T09:21:59.015Z,62.93
2023-03-03T09:24:35.914Z,62.78
2023-03-03T09:27:02.906Z,62.99
2023-03-03T09:29:30.855Z,63.13
2023-03-03T09:31:59.712Z,62.97
2023-03-03T09:34:38.518Z,62.61
2023-03-03T09:37:34.244Z,63.11
2023-03-03T09:40:00.872Z,62.93
2023-03-03T09:42:46.105Z,62.71
2023-03-03T09:45:44.868Z,62.63
2023-03-03T09:48:40.533Z,62.84
2023-03-03T09:51:33.615Z,62.96
2023-03-03T09:54:20.874Z,62.89
2023-03-03T09:56:57.115Z,63.13
2023-03-03T09:59:32.699Z,62.99
2023-03-03T10:02:11.885Z,62.86
2023-03-03T10:04:42.633Z,62.94
2023-03-03T10:07:37.344Z,63.11
2023-03-03T10:10:41.228Z,62.85
2023-03-03T10:13:22.537Z,62.61
2023-03-03T10:16:10.880Z,62.47
2023-03-03T10:18:49.619Z,62.33
2023-03-03T10:21:33.779Z,62.61
2023-03-03T10:24:25.442Z,62.49
2023-03-03T10:27:36.840Z,62.42
2023-03-03T10:30:54.797Z,62.37
2023-03-03T10:33:36.460Z,62.42
2023-03-03T10:36:22.178Z,62.50
2023-03-03T10:39:03.043Z,62.96
2023-03-03T10:41:48.037Z,62.57
2023-03-03T10:44:25.776Z,62.44
2023-03-03T10:47:18.519Z,62.75
2023-03-03T10:49:55.000Z,62.41
2023-03-03T10:52:24.637Z,62.83
2023-03-03T10:55:23.286Z,62.38
2023-03-03T10:58:27.711Z,62.60
2023-03-03T11:01:24.423Z,62.31
2023-03-03T11:04:01.851Z,62.46
2023-03-03T11:07:12.610Z,61.99
2023-03-03T11:09:44.904Z,62.25
2023-03-03T11:12:53.592Z,61.88
2023-03-03T11:15:46.223Z,62.23
2023-03-03T11:18:25.970Z,61.67
2023-03-03T11:21:07.005Z,62.24
2023-03-03T11:24:01.104Z,62.11
2023-03-03T11:27:08.894Z,61.78
2023-03-03T11:30:13.023Z,61.58
2023-03-03T11:32:39.555Z,62.52
2023-03-03T11:35:29.037Z,61.90
2023-03-03T11:38:21.974Z,61.77
2023-03-03T11:40:55.216Z,61.97
2023-03-03T11:43:45.392Z,61.62
2023-03-03T11:46:18.432Z,61.60
2023-03-03T11:48:55.500Z,62.04
2023-03-03T11:51:31.169Z,61.69
2023-03-03T11:54:04.235Z,61.81
2023-03-03T11:56:41.135Z,61.58
2023-03-03T11:59:25.959Z,61.57
2023-03-03T12:02:20.966Z,61.03
2023-03-03T12:04:54.266Z,60.88
2023-03-03T12:07:41.165Z,60.39
2023-03-03T12:10:41.507Z,60.88
2023-03-03T12:13:14.700Z,61.24
2023-03-03T12:15:50.167Z,60.85
2023-03-03T12:18:35.209Z,60.32
2023-03-03T12:21:16.396Z,59.81
2023-03-03T12:24:12.396Z,59.80
2023-03-03T12:27:00.188Z,59.87
2023-03-03T12:29:32.362Z,60.84
2023-03-03T12:32:42.020Z,59.82
2023-03-03T12:35:42.316Z,59.67
2023-03-03T12:38:14.989Z,59.87
2023-03-03T12:40:53.671Z,59.81
2023-03-03T12:43:35.399Z,59.46
2023-03-03T12:46:31.311Z,59.89
2023-03-03T12:48:57.892Z,63.76
2023-03-03T12:51:39.759Z,64.39
2023-03-03T12:54:21.509Z,66.35
2023-03-03T12:56:54.811Z,68.42
2023-03-03T12:59:35.764Z,65.54
2023-03-03T13:02:20.638Z,63.58
2023-03-03T13:05:09.014Z,60.64
2023-03-03T13:07:48.350Z,58.11
2023-03-03T13:10:38.921Z,54.49
2023-03-03T13:13:08.013Z,55.48
2023-03-03T13:15:51.856Z,51.13
2023-03-03T13:18:36.701Z,51.98
2023-03-03T13:21:22.678Z,51.95
2023-03-03T13:23:51.830Z,54.46
2023-03-03T13:26:36.843Z,50.61
2023-03-03T13:29:38.658Z,51.45
2023-03-03T13:32:20.167Z,48.78
2023-03-03T13:34:58.237Z,46.60
2023-03-03T13:37:32.118Z,46.47
2023-03-03T13:40:17.479Z,46.24
2023-03-03T13:42:47.021Z,48.44
2023-03-03T13:45:25.064Z,45.69
2023-03-03T13:48:18.833Z,45.33
2023-03-03T13:50:53.929Z,45.07
2023-03-03T13:54:06.193Z,45.20
2023-03-03T13:56:57.214Z,45.39
2023-03-03T13:59:54.723Z,46.28
2023-03-03T14:02:42.623Z,46.98
2023-03-03T14:05:31.898Z,46.83
2023-03-03T14:08:16.862Z,46.97
2023-03-03T14:11:19.390Z,46.79
2023-03-03T14:14:07.648Z,47.93
2023-03-03T14:16:52.207Z,45.34
2023-03-03T14:19:28.477Z,43.67
2023-03-03T14:22:05.134Z,43.22
2023-03-03T14:24:32.371Z,43.72
2023-03-03T14:27:00.202Z,43.05
2023-03-03T14:29:27.060Z,43.72
2023-03-03T14:31:59.194Z,43.91
2023-03-03T14:34:41.209Z,43.83
2023-03-03T14:37:44.007Z,44.38
2023-03-03T14:40:22.888Z,44.56
2023-03-03T14:42:54.520Z,45.60
2023-03-03T14:45:36.307Z,45.36
2023-03-03T14:48:19.540Z,45.93
2023-03-03T14:51:09.286Z,46.45
2023-03-03T14:53:38.374Z,47.29
2023-03-03T14:56:25.270Z,47.11
2023-03-03T14:59:18.505Z,47.39
2023-03-03T15:01:46.028Z,48.46
2023-03-03T15:04:15.540Z,48.04
2023-03-03T15:06:47.701Z,48.49
2023-03-03T15:09:25.263Z,48.29
2023-03-03T15:11:53.601Z,48.85
2023-03-03T15:14:29.306Z,48.91
2023-03-03T15:17:12.115Z,49.22
2023-03-03T15:19:50.646Z,49.17
2023-03-03T15:22:34.098Z,49.51
2023-03-03T15:25:15.273Z,49.60
2023-03-03T15:28:26.683Z,49.79
2023-03-03T15:31:32.120Z,50.14
2023-03-03T15:33:58.523Z,50.82
2023-03-03T15:36:48.015Z,50.60
2023-03-03T15:39:20.442Z,50.67
2023-03-03T15:42:04.008Z,50.88
2023-03-03T15:44:49.322Z,51.36
2023-03-03T15:47:43.740Z,50.54
2023-03-03T15:50:25.487Z,50.77
2023-03-03T15:53:05.861Z,50.88
2023-03-03T15:55:52.455Z,50.85
2023-03-03T15:58:58.403Z,51.13
2023-03-03T16:01:29.718Z,51.15
2023-03-03T16:04:00.705Z,51.17
2023-03-03T16:06:45.628Z,51.21
2023-03-03T16:09:56.370Z,50.70
2023-03-03T16:12:41.792Z,50.79
2023-03-03T16:15:35.482Z,50.79
2023-03-03T16:18:17.172Z,51.01
2023-03-03T16:21:03.290Z,50.75
2023-03-03T16:23:39.258Z,51.25
2023-03-03T16:26:23.748Z,50.76
2023-03-03T16:29:09.225Z,50.87
2023-03-03T16:32:01.243Z,51.05
2023-03-03T16:34:42.788Z,51.04
2023-03-03T16:37:21.650Z,51.04
2023-03-03T16:40:03.358Z,51.49
2023-03-03T16:42:33.492Z,51.54
2023-03-03T16:45:22.668Z,51.15
2023-03-03T16:47:58.446Z,51.62
2023-03-03T16:50:43.653Z,51.85
2023-03-03T16:53:19.332Z,52.05
2023-03-03T16:55:58.576Z,51.66
2023-03-03T16:58:34.860Z,51.98
2023-03-03T17:01:35.938Z,52.05
2023-03-03T17:04:05.200Z,52.51
2023-03-03T17:06:43.525Z,52.71
2023-03-03T17:09:54.281Z,52.38
2023-03-03T17:12:50.873Z,52.63
2023-03-03T17:15:35.900Z,52.94
2023-03-03T17:18:11.362Z,53.08
2023-03-03T17:20:57.144Z,53.13
2023-03-03T17:23:23.800Z,53.43
2023-03-03T17:25:57.242Z,53.34
2023-03-03T17:28:26.323Z,53.71
2023-03-03T17:31:20.551Z,53.57
2023-03-03T17:34:19.690Z,53.24
2023-03-03T17:37:09.425Z,52.72
2023-03-03T17:39:45.185Z,52.55
2023-03-03T17:42:23.112Z,52.08
2023-03-03T17:45:08.412Z,52.38
2023-03-03T17:47:55.941Z,52.67
2023-03-03T17:50:33.337Z,52.67
2023-03-03T17:53:06.463Z,52.32
2023-03-03T17:55:55.342Z,52.71
2023-03-03T17:58:56.733Z,52.68
2023-03-03T18:01:45.514Z,52.46
2023-03-03T18:04:30.357Z,52.43
2023-03-03T18:07:22.107Z,52.54
2023-03-03T18:10:19.952Z,52.66
2023-03-03T18:13:22.291Z,53.00
2023-03-03T18:16:18.857Z,52.88
2023-03-03T18:18:48.420Z,53.22
2023-03-03T18:21:20.914Z,53.34
2023-03-03T18:23:48.918Z,53.61
2023-03-03T18:26:36.517Z,52.77
2023-03-03T18:29:16.147Z,53.20
2023-03-03T18:32:02.764Z,53.08
2023-03-03T18:34:40.449Z,53.18
2023-03-03T18:37:29.972Z,53.51
2023-03-03T18:40:02.317Z,53.42
2023-03-03T18:42:42.237Z,53.92
2023-03-03T18:45:17.679Z,53.49
2023-03-03T18:48:05.135Z,53.46
2023-03-03T18:50:33.913Z,53.74
2023-03-03T18:53:28.458Z,53.44
2023-03-03T18:56:00.344Z,53.53
2023-03-03T18:58:27.355Z,53.93
2023-03-03T19:00:55.989Z,53.48
2023-03-03T19:03:25.302Z,53.65
2023-03-03T19:05:54.140Z,53.94
2023-03-03T19:08:29.964Z,53.72
2023-03-03T19:11:01.373Z,53.71
2023-03-03T19:13:42.642Z,53.27
2023-03-03T19:16:24.555Z,53.61
2023-03-03T19:18:50.939Z,54.07
2023-03-03T19:21:25.016Z,53.71
2023-03-03T19:24:00.503Z,54.09
2023-03-03T19:26:30.130Z,54.31
2023-03-03T19:29:24.206Z,53.77
2023-03-03T19:31:58.608Z,54.24
2023-03-03T19:34:27.693Z,54.44
2023-03-03T19:37:32.093Z,54.19
2023-03-03T19:40:10.569Z,54.70
2023-03-03T19:43:00.525Z,54.30
2023-03-03T19:45:57.084Z,54.31
2023-03-03T19:48:36.053Z,54.57
2023-03-03T19:51:20.779Z,54.76
2023-03-03T19:53:50.240Z,54.33
2023-03-03T19:56:48.637Z,54.43
2023-03-03T19:59:33.609Z,54.23
2023-03-03T20:02:39.557Z,54.32
2023-03-03T20:05:46.243Z,54.34
2023-03-03T20:08:16.614Z,54.03
2023-03-03T20:10:56.006Z,54.22
2023-03-03T20:13:37.656Z,54.81
2023-03-03T20:16:24.332Z,54.57
2023-03-03T20:19:09.406Z,54.57
2023-03-03T20:21:48.292Z,54.46
2023-03-03T20:24:39.400Z,54.24
2023-03-03T20:27:13.944Z,54.67
2023-03-03T20:29:57.288Z,54.51
2023-03-03T20:32:47.532Z,54.53
2023-03-03T20:35:24.659Z,54.46
2023-03-03T20:38:09.279Z,54.92
2023-03-03T20:40:51.025Z,54.56
2023-03-03T20:43:45.519Z,54.46
2023-03-03T20:46:22.799Z,55.08
2023-03-03T20:49:10.913Z,54.65
2023-03-03T20:52:05.104Z,54.50
2023-03-03T20:54:46.697Z,54.87
2023-03-03T20:57:56.574Z,55.36
2023-03-03T21:00:38.735Z,55.19
2023-03-03T21:03:18.343Z,54.74
2023-03-03T21:05:59.795Z,54.78
2023-03-03T21:08:55.057Z,55.02
2023-03-03T21:11:41.666Z,55.46
2023-03-03T21:14:19.766Z,55.05
2023-03-03T21:16:46.870Z,55.43
2023-03-03T21:19:24.985Z,55.21
2023-03-03T21:21:52.535Z,55.36
2023-03-03T21:24:21.855Z,55.31
2023-03-03T21:26:58.227Z,55.37
2023-03-03T21:29:30.485Z,55.24
2023-03-03T21:31:59.225Z,55.78
2023-03-03T21:34:30.105Z,55.43
2023-03-03T21:36:58.743Z,55.84
2023-03-03T21:39:35.533Z,55.55
2023-03-03T21:42:03.405Z,55.73
2023-03-03T21:44:44.494Z,55.82
2023-03-03T21:47:14.895Z,55.87
2023-03-03T21:49:46.630Z,55.89
2023-03-03T21:52:16.266Z,56.08
2023-03-03T21:54:43.754Z,56.02
2023-03-03T21:57:10.762Z,56.10
2023-03-03T21:59:37.336Z,56.33
2023-03-03T22:02:04.571Z,56.04
2023-03-03T22:04:30.986Z,55.99
2023-03-03T22:06:57.562Z,56.03
2023-03-03T22:09:24.029Z,56.37
2023-03-03T22:11:50.364Z,56.13
2023-03-03T22:14:16.792Z,56.10
2023-03-03T22:16:43.268Z,56.12
2023-03-03T22:19:09.880Z,55.96
2023-03-03T22:21:37.708Z,56.19
2023-03-03T22:24:04.981Z,56.22
2023-03-03T22:26:31.529Z,56.31
2023-03-03T22:28:57.912Z,56.40
2023-03-03T22:31:24.339Z,56.40
2023-03-03T22:33:50.782Z,56.21
2023-03-03T22:36:18.941Z,56.46
2023-03-03T22:38:46.706Z,56.21
2023-03-03T22:41:13.503Z,56.35
2023-03-03T22:43:39.929Z,56.60
2023-03-03T22:46:06.413Z,56.80
2023-03-03T22:48:33.028Z,56.40
2023-03-03T22:50:59.474Z,56.76
2023-03-03T22:53:26.530Z,56.54
2023-03-03T22:55:53.033Z,56.26
2023-03-03T22:58:20.422Z,56.40
2023-03-03T23:00:48.348Z,56.30
2023-03-03T23:03:14.767Z,56.58
2023-03-03T23:05:42.147Z,56.78
2023-03-03T23:08:11.985Z,56.55
2023-03-03T23:10:38.765Z,56.63
2023-03-03T23:13:05.498Z,57.09
2023-03-03T23:15:32.414Z,56.87
2023-03-03T23:17:59.037Z,57.06
2023-03-03T23:20:28.065Z,56.94
2023-03-03T23:22:54.962Z,57.05
2023-03-03T23:25:30.057Z,56.72
2023-03-03T23:27:57.029Z,57.00
2023-03-03T23:30:23.890Z,56.89
2023-03-03T23:32:50.818Z,56.90
2023-03-03T23:35:17.895Z,56.41
2023-03-03T23:37:44.947Z,56.45
2023-03-03T23:40:12.309Z,56.66
2023-03-03T23:42:38.764Z,56.78
2023-03-03T23:45:05.776Z,56.91
2023-03-03T23:47:32.690Z,56.76
2023-03-03T23:49:59.091Z,57.05
2023-03-03T23:52:25.584Z,57.11
2023-03-03T23:54:52.998Z,57.09
2023-03-03T23:57:19.714Z,57.08
2023-03-03T23:59:46.109Z,56.99
